sensor_id;sensor_type;location;lat;lon;timestamp;P1;durP1;ratioP1;P2;durP2;ratioP2
20476;SDS011;10397;50.948;11.092;2022-12-07T00:00:41;4.20;;;3.03;;
20476;SDS011;10397;50.948;11.092;2022-12-07T00:03:13;3.33;;;2.45;;
20476;SDS011;10397;50.948;11.092;2022-12-07T00:05:44;4.90;;;2.67;;
20476;SDS011;10397;50.948;11.092;2022-12-07T00:08:14;3.60;;;2.70;;
20476;SDS011;10397;50.948;11.092;2022-12-07T00:10:45;3.72;;;2.42;;
20476;SDS011;10397;50.948;11.092;2022-12-07T00:13:16;4.05;;;2.52;;
20476;SDS011;10397;50.948;11.092;2022-12-07T00:15:47;3.62;;;2.37;;
20476;SDS011;10397;50.948;11.092;2022-12-07T00:18:18;3.40;;;2.43;;
20476;SDS011;10397;50.948;11.092;2022-12-07T00:20:49;7.00;;;2.30;;
20476;SDS011;10397;50.948;11.092;2022-12-07T00:23:20;5.80;;;2.22;;
20476;SDS011;10397;50.948;11.092;2022-12-07T00:25:51;2.72;;;2.00;;
20476;SDS011;10397;50.948;11.092;2022-12-07T00:28:22;3.42;;;2.02;;
20476;SDS011;10397;50.948;11.092;2022-12-07T00:30:53;4.37;;;2.63;;
20476;SDS011;10397;50.948;11.092;2022-12-07T00:33:23;3.80;;;2.35;;
20476;SDS011;10397;50.948;11.092;2022-12-07T00:35:57;3.58;;;2.20;;
20476;SDS011;10397;50.948;11.092;2022-12-07T00:38:29;3.87;;;2.20;;
20476;SDS011;10397;50.948;11.092;2022-12-07T00:40:59;3.83;;;2.50;;
20476;SDS011;10397;50.948;11.092;2022-12-07T00:43:29;2.98;;;1.75;;
20476;SDS011;10397;50.948;11.092;2022-12-07T00:46:00;2.70;;;1.77;;
20476;SDS011;10397;50.948;11.092;2022-12-07T00:48:31;4.22;;;1.80;;
20476;SDS011;10397;50.948;11.092;2022-12-07T00:51:03;2.80;;;1.75;;
20476;SDS011;10397;50.948;11.092;2022-12-07T00:53:34;2.92;;;2.17;;
20476;SDS011;10397;50.948;11.092;2022-12-07T00:56:07;3.13;;;2.20;;
20476;SDS011;10397;50.948;11.092;2022-12-07T00:58:37;3.47;;;1.93;;
20476;SDS011;10397;50.948;11.092;2022-12-07T01:01:08;2.50;;;1.80;;
20476;SDS011;10397;50.948;11.092;2022-12-07T01:03:39;3.15;;;2.20;;
20476;SDS011;10397;50.948;11.092;2022-12-07T01:06:13;4.10;;;2.22;;
20476;SDS011;10397;50.948;11.092;2022-12-07T01:08:41;3.98;;;2.05;;
20476;SDS011;10397;50.948;11.092;2022-12-07T01:11:14;6.08;;;2.50;;
20476;SDS011;10397;50.948;11.092;2022-12-07T01:13:44;2.83;;;1.90;;
20476;SDS011;10397;50.948;11.092;2022-12-07T01:16:15;2.83;;;2.10;;
20476;SDS011;10397;50.948;11.092;2022-12-07T01:18:47;3.72;;;2.50;;
20476;SDS011;10397;50.948;11.092;2022-12-07T01:21:18;5.37;;;2.22;;
20476;SDS011;10397;50.948;11.092;2022-12-07T01:23:53;2.70;;;1.80;;
20476;SDS011;10397;50.948;11.092;2022-12-07T01:26:24;5.42;;;3.10;;
20476;SDS011;10397;50.948;11.092;2022-12-07T01:28:55;4.35;;;2.92;;
20476;SDS011;10397;50.948;11.092;2022-12-07T01:31:26;7.13;;;2.97;;
20476;SDS011;10397;50.948;11.092;2022-12-07T01:33:58;3.95;;;3.22;;
20476;SDS011;10397;50.948;11.092;2022-12-07T01:36:31;6.20;;;3.13;;
20476;SDS011;10397;50.948;11.092;2022-12-07T01:39:02;5.10;;;3.27;;
20476;SDS011;10397;50.948;11.092;2022-12-07T01:41:33;7.45;;;3.22;;
20476;SDS011;10397;50.948;11.092;2022-12-07T01:46:55;9.33;;;3.70;;
20476;SDS011;10397;50.948;11.092;2022-12-07T01:49:33;5.20;;;3.35;;
20476;SDS011;10397;50.948;11.092;2022-12-07T01:54:51;5.27;;;3.90;;
20476;SDS011;10397;50.948;11.092;2022-12-07T01:57:21;6.33;;;3.98;;
20476;SDS011;10397;50.948;11.092;2022-12-07T01:59:53;5.05;;;3.75;;
20476;SDS011;10397;50.948;11.092;2022-12-07T02:02:30;4.67;;;2.95;;
20476;SDS011;10397;50.948;11.092;2022-12-07T02:05:04;4.35;;;2.83;;
20476;SDS011;10397;50.948;11.092;2022-12-07T02:07:36;3.65;;;2.22;;
20476;SDS011;10397;50.948;11.092;2022-12-07T02:10:18;2.45;;;1.90;;
20476;SDS011;10397;50.948;11.092;2022-12-07T02:12:45;4.00;;;2.33;;
20476;SDS011;10397;50.948;11.092;2022-12-07T02:15:16;3.40;;;2.70;;
20476;SDS011;10397;50.948;11.092;2022-12-07T02:18:01;3.95;;;2.83;;
20476;SDS011;10397;50.948;11.092;2022-12-07T02:23:26;4.28;;;2.72;;
20476;SDS011;10397;50.948;11.092;2022-12-07T02:31:41;3.23;;;2.43;;
20476;SDS011;10397;50.948;11.092;2022-12-07T02:34:18;2.75;;;2.22;;
20476;SDS011;10397;50.948;11.092;2022-12-07T02:36:43;3.70;;;2.45;;
20476;SDS011;10397;50.948;11.092;2022-12-07T02:39:15;3.93;;;3.27;;
20476;SDS011;10397;50.948;11.092;2022-12-07T02:41:52;4.47;;;3.20;;
20476;SDS011;10397;50.948;11.092;2022-12-07T02:44:20;3.83;;;2.60;;
20476;SDS011;10397;50.948;11.092;2022-12-07T02:46:54;4.53;;;3.02;;
20476;SDS011;10397;50.948;11.092;2022-12-07T02:49:24;3.95;;;3.52;;
20476;SDS011;10397;50.948;11.092;2022-12-07T02:51:54;5.20;;;4.23;;
20476;SDS011;10397;50.948;11.092;2022-12-07T02:54:25;4.42;;;3.15;;
20476;SDS011;10397;50.948;11.092;2022-12-07T02:57:02;5.50;;;4.05;;
20476;SDS011;10397;50.948;11.092;2022-12-07T02:59:48;6.97;;;4.97;;
20476;SDS011;10397;50.948;11.092;2022-12-07T03:05:31;5.90;;;4.97;;
20476;SDS011;10397;50.948;11.092;2022-12-07T03:08:04;7.20;;;5.40;;
20476;SDS011;10397;50.948;11.092;2022-12-07T03:13:39;6.27;;;5.67;;
20476;SDS011;10397;50.948;11.092;2022-12-07T03:16:20;5.53;;;4.97;;
20476;SDS011;10397;50.948;11.092;2022-12-07T03:19:02;5.90;;;5.30;;
20476;SDS011;10397;50.948;11.092;2022-12-07T03:21:40;6.43;;;5.00;;
20476;SDS011;10397;50.948;11.092;2022-12-07T03:24:15;5.53;;;5.03;;
20476;SDS011;10397;50.948;11.092;2022-12-07T03:26:42;5.65;;;4.85;;
20476;SDS011;10397;50.948;11.092;2022-12-07T03:29:27;4.70;;;4.20;;
20476;SDS011;10397;50.948;11.092;2022-12-07T03:31:58;5.67;;;3.77;;
20476;SDS011;10397;50.948;11.092;2022-12-07T03:34:31;5.20;;;4.42;;
20476;SDS011;10397;50.948;11.092;2022-12-07T03:37:11;4.73;;;4.17;;
20476;SDS011;10397;50.948;11.092;2022-12-07T03:39:39;7.07;;;4.80;;
20476;SDS011;10397;50.948;11.092;2022-12-07T03:42:15;5.57;;;4.40;;
20476;SDS011;10397;50.948;11.092;2022-12-07T03:44:45;5.35;;;4.85;;
20476;SDS011;10397;50.948;11.092;2022-12-07T03:47:26;6.00;;;5.05;;
20476;SDS011;10397;50.948;11.092;2022-12-07T03:57:56;5.53;;;4.60;;
20476;SDS011;10397;50.948;11.092;2022-12-07T04:00:26;5.87;;;4.70;;
20476;SDS011;10397;50.948;11.092;2022-12-07T04:02:56;7.63;;;5.67;;
20476;SDS011;10397;50.948;11.092;2022-12-07T04:05:27;8.60;;;5.33;;
20476;SDS011;10397;50.948;11.092;2022-12-07T04:07:57;8.90;;;5.17;;
20476;SDS011;10397;50.948;11.092;2022-12-07T04:10:29;6.45;;;5.72;;
20476;SDS011;10397;50.948;11.092;2022-12-07T04:12:59;7.40;;;5.92;;
20476;SDS011;10397;50.948;11.092;2022-12-07T04:15:31;8.40;;;5.70;;
20476;SDS011;10397;50.948;11.092;2022-12-07T04:18:02;6.18;;;5.50;;
20476;SDS011;10397;50.948;11.092;2022-12-07T04:20:32;5.77;;;4.67;;
20476;SDS011;10397;50.948;11.092;2022-12-07T04:23:03;7.60;;;5.95;;
20476;SDS011;10397;50.948;11.092;2022-12-07T04:25:34;6.33;;;5.00;;
20476;SDS011;10397;50.948;11.092;2022-12-07T04:28:05;5.27;;;4.77;;
20476;SDS011;10397;50.948;11.092;2022-12-07T04:30:36;5.05;;;4.50;;
20476;SDS011;10397;50.948;11.092;2022-12-07T04:33:07;5.80;;;5.00;;
20476;SDS011;10397;50.948;11.092;2022-12-07T04:35:38;5.13;;;4.37;;
20476;SDS011;10397;50.948;11.092;2022-12-07T04:38:09;5.17;;;4.50;;
20476;SDS011;10397;50.948;11.092;2022-12-07T04:40:40;4.83;;;4.08;;
20476;SDS011;10397;50.948;11.092;2022-12-07T04:43:12;5.87;;;5.28;;
20476;SDS011;10397;50.948;11.092;2022-12-07T04:45:46;5.60;;;4.65;;
20476;SDS011;10397;50.948;11.092;2022-12-07T04:48:16;5.60;;;5.08;;
20476;SDS011;10397;50.948;11.092;2022-12-07T04:50:48;4.70;;;4.20;;
20476;SDS011;10397;50.948;11.092;2022-12-07T04:53:18;5.22;;;4.62;;
20476;SDS011;10397;50.948;11.092;2022-12-07T04:55:49;6.03;;;5.40;;
20476;SDS011;10397;50.948;11.092;2022-12-07T04:58:21;5.70;;;5.00;;
20476;SDS011;10397;50.948;11.092;2022-12-07T05:00:53;6.33;;;5.50;;
20476;SDS011;10397;50.948;11.092;2022-12-07T05:03:22;7.57;;;5.90;;
20476;SDS011;10397;50.948;11.092;2022-12-07T05:05:53;6.67;;;5.97;;
20476;SDS011;10397;50.948;11.092;2022-12-07T05:08:24;7.03;;;5.97;;
20476;SDS011;10397;50.948;11.092;2022-12-07T05:10:55;6.63;;;5.83;;
20476;SDS011;10397;50.948;11.092;2022-12-07T05:13:26;9.05;;;6.78;;
20476;SDS011;10397;50.948;11.092;2022-12-07T05:15:57;8.73;;;7.17;;
20476;SDS011;10397;50.948;11.092;2022-12-07T05:18:28;7.73;;;6.83;;
20476;SDS011;10397;50.948;11.092;2022-12-07T05:20:58;8.43;;;6.53;;
20476;SDS011;10397;50.948;11.092;2022-12-07T05:23:29;9.33;;;6.83;;
20476;SDS011;10397;50.948;11.092;2022-12-07T05:26:00;7.37;;;6.30;;
20476;SDS011;10397;50.948;11.092;2022-12-07T05:28:31;7.93;;;6.97;;
20476;SDS011;10397;50.948;11.092;2022-12-07T05:31:02;7.30;;;6.60;;
20476;SDS011;10397;50.948;11.092;2022-12-07T05:33:33;8.00;;;6.50;;
20476;SDS011;10397;50.948;11.092;2022-12-07T05:36:03;8.30;;;7.27;;
20476;SDS011;10397;50.948;11.092;2022-12-07T05:38:34;8.10;;;7.33;;
20476;SDS011;10397;50.948;11.092;2022-12-07T05:41:05;9.03;;;6.47;;
20476;SDS011;10397;50.948;11.092;2022-12-07T05:43:35;9.25;;;7.75;;
20476;SDS011;10397;50.948;11.092;2022-12-07T05:46:06;8.28;;;6.95;;
20476;SDS011;10397;50.948;11.092;2022-12-07T05:48:38;10.68;;;7.10;;
20476;SDS011;10397;50.948;11.092;2022-12-07T05:51:08;8.00;;;6.97;;
20476;SDS011;10397;50.948;11.092;2022-12-07T05:53:39;8.10;;;5.96;;
20476;SDS011;10397;50.948;11.092;2022-12-07T05:56:09;8.67;;;7.40;;
20476;SDS011;10397;50.948;11.092;2022-12-07T05:58:40;8.65;;;7.60;;
20476;SDS011;10397;50.948;11.092;2022-12-07T06:01:29;8.33;;;7.53;;
20476;SDS011;10397;50.948;11.092;2022-12-07T06:04:00;11.45;;;8.05;;
20476;SDS011;10397;50.948;11.092;2022-12-07T06:06:31;10.00;;;8.73;;
20476;SDS011;10397;50.948;11.092;2022-12-07T06:09:02;11.08;;;9.28;;
20476;SDS011;10397;50.948;11.092;2022-12-07T06:11:32;10.67;;;8.57;;
20476;SDS011;10397;50.948;11.092;2022-12-07T06:14:21;9.13;;;8.20;;
20476;SDS011;10397;50.948;11.092;2022-12-07T06:16:52;9.25;;;8.03;;
20476;SDS011;10397;50.948;11.092;2022-12-07T06:19:23;11.48;;;8.63;;
20476;SDS011;10397;50.948;11.092;2022-12-07T06:21:54;9.83;;;8.77;;
20476;SDS011;10397;50.948;11.092;2022-12-07T06:24:25;9.20;;;8.28;;
20476;SDS011;10397;50.948;11.092;2022-12-07T06:26:55;10.50;;;9.10;;
20476;SDS011;10397;50.948;11.092;2022-12-07T06:29:25;9.95;;;8.95;;
20476;SDS011;10397;50.948;11.092;2022-12-07T06:31:56;9.38;;;8.33;;
20476;SDS011;10397;50.948;11.092;2022-12-07T06:34:27;8.67;;;7.20;;
20476;SDS011;10397;50.948;11.092;2022-12-07T06:36:58;8.95;;;7.95;;
20476;SDS011;10397;50.948;11.092;2022-12-07T06:39:29;10.88;;;8.35;;
20476;SDS011;10397;50.948;11.092;2022-12-07T06:42:00;11.47;;;8.17;;
20476;SDS011;10397;50.948;11.092;2022-12-07T06:44:30;9.03;;;8.03;;
20476;SDS011;10397;50.948;11.092;2022-12-07T06:47:02;10.72;;;7.80;;
20476;SDS011;10397;50.948;11.092;2022-12-07T06:49:32;11.80;;;7.73;;
20476;SDS011;10397;50.948;11.092;2022-12-07T06:52:03;11.38;;;8.45;;
20476;SDS011;10397;50.948;11.092;2022-12-07T06:54:33;11.23;;;8.83;;
20476;SDS011;10397;50.948;11.092;2022-12-07T06:57:05;10.60;;;9.20;;
20476;SDS011;10397;50.948;11.092;2022-12-07T06:59:36;13.53;;;8.75;;
20476;SDS011;10397;50.948;11.092;2022-12-07T07:02:07;11.57;;;8.67;;
20476;SDS011;10397;50.948;11.092;2022-12-07T07:04:37;9.93;;;8.50;;
20476;SDS011;10397;50.948;11.092;2022-12-07T07:07:08;10.53;;;8.77;;
20476;SDS011;10397;50.948;11.092;2022-12-07T07:09:39;9.50;;;8.50;;
20476;SDS011;10397;50.948;11.092;2022-12-07T07:12:09;15.97;;;9.73;;
20476;SDS011;10397;50.948;11.092;2022-12-07T07:14:40;10.05;;;9.03;;
20476;SDS011;10397;50.948;11.092;2022-12-07T07:17:11;11.23;;;8.83;;
20476;SDS011;10397;50.948;11.092;2022-12-07T07:19:42;10.25;;;8.75;;
20476;SDS011;10397;50.948;11.092;2022-12-07T07:22:12;11.33;;;8.67;;
20476;SDS011;10397;50.948;11.092;2022-12-07T07:24:43;11.10;;;8.90;;
20476;SDS011;10397;50.948;11.092;2022-12-07T07:27:14;13.40;;;9.87;;
20476;SDS011;10397;50.948;11.092;2022-12-07T07:29:45;12.98;;;8.25;;
20476;SDS011;10397;50.948;11.092;2022-12-07T07:32:15;12.27;;;9.80;;
20476;SDS011;10397;50.948;11.092;2022-12-07T07:34:46;11.03;;;8.73;;
20476;SDS011;10397;50.948;11.092;2022-12-07T07:37:17;10.83;;;8.80;;
20476;SDS011;10397;50.948;11.092;2022-12-07T07:39:48;13.08;;;8.95;;
20476;SDS011;10397;50.948;11.092;2022-12-07T07:42:18;10.57;;;8.37;;
20476;SDS011;10397;50.948;11.092;2022-12-07T07:44:49;12.50;;;8.10;;
20476;SDS011;10397;50.948;11.092;2022-12-07T07:47:20;9.33;;;6.90;;
20476;SDS011;10397;50.948;11.092;2022-12-07T07:49:51;7.97;;;7.10;;
20476;SDS011;10397;50.948;11.092;2022-12-07T07:52:22;11.20;;;9.33;;
20476;SDS011;10397;50.948;11.092;2022-12-07T07:54:52;12.37;;;9.93;;
20476;SDS011;10397;50.948;11.092;2022-12-07T07:57:23;12.13;;;9.13;;
20476;SDS011;10397;50.948;11.092;2022-12-07T07:59:53;9.40;;;7.60;;
20476;SDS011;10397;50.948;11.092;2022-12-07T08:02:24;7.80;;;6.73;;
20476;SDS011;10397;50.948;11.092;2022-12-07T08:04:55;10.53;;;7.45;;
20476;SDS011;10397;50.948;11.092;2022-12-07T08:07:27;8.97;;;7.50;;
20476;SDS011;10397;50.948;11.092;2022-12-07T08:09:56;8.90;;;6.85;;
20476;SDS011;10397;50.948;11.092;2022-12-07T08:12:27;9.77;;;7.07;;
20476;SDS011;10397;50.948;11.092;2022-12-07T08:14:58;8.88;;;7.17;;
20476;SDS011;10397;50.948;11.092;2022-12-07T08:17:28;10.80;;;7.17;;
20476;SDS011;10397;50.948;11.092;2022-12-07T08:19:59;8.30;;;7.12;;
20476;SDS011;10397;50.948;11.092;2022-12-07T08:22:30;8.40;;;6.78;;
20476;SDS011;10397;50.948;11.092;2022-12-07T08:25:02;10.18;;;6.90;;
20476;SDS011;10397;50.948;11.092;2022-12-07T08:27:32;7.40;;;6.67;;
20476;SDS011;10397;50.948;11.092;2022-12-07T08:30:03;11.43;;;6.53;;
20476;SDS011;10397;50.948;11.092;2022-12-07T08:32:34;13.48;;;6.92;;
20476;SDS011;10397;50.948;11.092;2022-12-07T08:35:04;7.77;;;6.43;;
20476;SDS011;10397;50.948;11.092;2022-12-07T08:37:35;7.83;;;6.60;;
20476;SDS011;10397;50.948;11.092;2022-12-07T08:40:06;7.30;;;5.77;;
20476;SDS011;10397;50.948;11.092;2022-12-07T08:42:36;7.33;;;6.17;;
20476;SDS011;10397;50.948;11.092;2022-12-07T08:45:08;9.33;;;5.47;;
20476;SDS011;10397;50.948;11.092;2022-12-07T08:47:39;7.35;;;5.12;;
20476;SDS011;10397;50.948;11.092;2022-12-07T08:50:09;8.30;;;5.65;;
20476;SDS011;10397;50.948;11.092;2022-12-07T08:52:39;6.43;;;4.37;;
20476;SDS011;10397;50.948;11.092;2022-12-07T08:55:10;5.45;;;4.20;;
20476;SDS011;10397;50.948;11.092;2022-12-07T08:57:41;7.40;;;4.97;;
20476;SDS011;10397;50.948;11.092;2022-12-07T09:00:11;6.73;;;3.90;;
20476;SDS011;10397;50.948;11.092;2022-12-07T09:02:43;5.65;;;4.40;;
20476;SDS011;10397;50.948;11.092;2022-12-07T09:05:13;5.67;;;4.33;;
20476;SDS011;10397;50.948;11.092;2022-12-07T09:07:43;6.80;;;4.40;;
20476;SDS011;10397;50.948;11.092;2022-12-07T09:10:14;6.92;;;4.58;;
20476;SDS011;10397;50.948;11.092;2022-12-07T09:12:44;5.20;;;3.83;;
20476;SDS011;10397;50.948;11.092;2022-12-07T09:15:15;13.20;;;4.12;;
20476;SDS011;10397;50.948;11.092;2022-12-07T09:17:47;6.28;;;3.62;;
20476;SDS011;10397;50.948;11.092;2022-12-07T09:20:17;5.27;;;3.87;;
20476;SDS011;10397;50.948;11.092;2022-12-07T09:22:48;5.17;;;3.12;;
20476;SDS011;10397;50.948;11.092;2022-12-07T09:25:19;3.87;;;2.60;;
20476;SDS011;10397;50.948;11.092;2022-12-07T09:27:55;4.23;;;2.90;;
20476;SDS011;10397;50.948;11.092;2022-12-07T09:30:20;8.55;;;2.80;;
20476;SDS011;10397;50.948;11.092;2022-12-07T09:32:54;4.47;;;3.10;;
20476;SDS011;10397;50.948;11.092;2022-12-07T09:35:24;5.27;;;2.63;;
20476;SDS011;10397;50.948;11.092;2022-12-07T09:37:55;5.05;;;2.98;;
20476;SDS011;10397;50.948;11.092;2022-12-07T09:40:25;9.17;;;2.90;;
20476;SDS011;10397;50.948;11.092;2022-12-07T09:42:56;5.58;;;2.55;;
20476;SDS011;10397;50.948;11.092;2022-12-07T09:45:29;2.93;;;2.37;;
20476;SDS011;10397;50.948;11.092;2022-12-07T09:47:58;3.55;;;2.27;;
20476;SDS011;10397;50.948;11.092;2022-12-07T09:50:28;7.67;;;2.63;;
20476;SDS011;10397;50.948;11.092;2022-12-07T09:53:06;6.65;;;2.52;;
20476;SDS011;10397;50.948;11.092;2022-12-07T09:55:33;8.33;;;2.40;;
20476;SDS011;10397;50.948;11.092;2022-12-07T09:58:03;3.80;;;2.40;;
20476;SDS011;10397;50.948;11.092;2022-12-07T10:00:34;4.30;;;2.45;;
20476;SDS011;10397;50.948;11.092;2022-12-07T10:03:04;6.57;;;2.90;;
20476;SDS011;10397;50.948;11.092;2022-12-07T10:05:39;4.25;;;2.37;;
20476;SDS011;10397;50.948;11.092;2022-12-07T10:08:12;5.37;;;3.15;;
20476;SDS011;10397;50.948;11.092;2022-12-07T10:10:43;3.90;;;2.50;;
20476;SDS011;10397;50.948;11.092;2022-12-07T10:13:15;5.53;;;2.45;;
20476;SDS011;10397;50.948;11.092;2022-12-07T10:15:46;7.00;;;2.60;;
20476;SDS011;10397;50.948;11.092;2022-12-07T10:18:19;5.70;;;2.63;;
20476;SDS011;10397;50.948;11.092;2022-12-07T10:20:59;4.33;;;2.03;;
20476;SDS011;10397;50.948;11.092;2022-12-07T10:23:22;8.00;;;3.00;;
20476;SDS011;10397;50.948;11.092;2022-12-07T10:25:53;4.10;;;2.30;;
20476;SDS011;10397;50.948;11.092;2022-12-07T10:28:27;6.00;;;2.50;;
20476;SDS011;10397;50.948;11.092;2022-12-07T10:30:58;5.93;;;3.03;;
20476;SDS011;10397;50.948;11.092;2022-12-07T10:36:38;5.33;;;2.70;;
20476;SDS011;10397;50.948;11.092;2022-12-07T10:38:58;6.25;;;2.87;;
20476;SDS011;10397;50.948;11.092;2022-12-07T10:41:23;2.97;;;1.93;;
20476;SDS011;10397;50.948;11.092;2022-12-07T10:43:55;3.83;;;2.20;;
20476;SDS011;10397;50.948;11.092;2022-12-07T10:51:59;2.20;;;1.50;;
20476;SDS011;10397;50.948;11.092;2022-12-07T10:54:37;4.60;;;1.73;;
20476;SDS011;10397;50.948;11.092;2022-12-07T11:05:53;2.70;;;1.80;;
20476;SDS011;10397;50.948;11.092;2022-12-07T11:08:51;2.17;;;1.50;;
20476;SDS011;10397;50.948;11.092;2022-12-07T11:11:42;5.07;;;1.50;;
20476;SDS011;10397;50.948;11.092;2022-12-07T11:16:59;2.60;;;1.40;;
20476;SDS011;10397;50.948;11.092;2022-12-07T11:19:32;2.73;;;1.47;;
20476;SDS011;10397;50.948;11.092;2022-12-07T11:22:12;2.53;;;1.30;;
20476;SDS011;10397;50.948;11.092;2022-12-07T11:24:50;3.97;;;1.50;;
20476;SDS011;10397;50.948;11.092;2022-12-07T11:27:36;2.40;;;1.43;;
20476;SDS011;10397;50.948;11.092;2022-12-07T11:30:21;3.17;;;1.35;;
20476;SDS011;10397;50.948;11.092;2022-12-07T11:32:57;3.73;;;1.30;;
20476;SDS011;10397;50.948;11.092;2022-12-07T11:38:36;3.50;;;1.63;;
20476;SDS011;10397;50.948;11.092;2022-12-07T11:41:20;3.07;;;1.63;;
20476;SDS011;10397;50.948;11.092;2022-12-07T11:49:24;3.93;;;2.67;;
20476;SDS011;10397;50.948;11.092;2022-12-07T11:51:55;4.43;;;1.63;;
20476;SDS011;10397;50.948;11.092;2022-12-07T11:54:26;2.85;;;1.42;;
20476;SDS011;10397;50.948;11.092;2022-12-07T11:57:00;5.03;;;1.23;;
20476;SDS011;10397;50.948;11.092;2022-12-07T11:59:39;2.08;;;1.30;;
20476;SDS011;10397;50.948;11.092;2022-12-07T12:02:15;6.30;;;1.50;;
20476;SDS011;10397;50.948;11.092;2022-12-07T12:07:25;4.40;;;0.90;;
20476;SDS011;10397;50.948;11.092;2022-12-07T12:09:57;1.90;;;0.80;;
20476;SDS011;10397;50.948;11.092;2022-12-07T12:18:15;2.50;;;1.00;;
20476;SDS011;10397;50.948;11.092;2022-12-07T12:20:57;6.00;;;1.50;;
20476;SDS011;10397;50.948;11.092;2022-12-07T12:23:40;3.70;;;0.93;;
20476;SDS011;10397;50.948;11.092;2022-12-07T12:26:20;4.50;;;1.27;;
20476;SDS011;10397;50.948;11.092;2022-12-07T12:28:56;2.60;;;1.17;;
20476;SDS011;10397;50.948;11.092;2022-12-07T12:33:54;4.47;;;1.00;;
20476;SDS011;10397;50.948;11.092;2022-12-07T12:36:26;4.37;;;1.33;;
20476;SDS011;10397;50.948;11.092;2022-12-07T12:46:51;2.60;;;0.77;;
20476;SDS011;10397;50.948;11.092;2022-12-07T12:51:52;1.90;;;0.70;;
20476;SDS011;10397;50.948;11.092;2022-12-07T13:02:21;5.53;;;0.60;;
20476;SDS011;10397;50.948;11.092;2022-12-07T13:05:16;2.47;;;0.80;;
20476;SDS011;10397;50.948;11.092;2022-12-07T13:10:29;1.27;;;0.50;;
20476;SDS011;10397;50.948;11.092;2022-12-07T13:13:03;2.50;;;0.70;;
20476;SDS011;10397;50.948;11.092;2022-12-07T13:26:21;4.50;;;0.90;;
20476;SDS011;10397;50.948;11.092;2022-12-07T13:28:51;3.27;;;0.97;;
20476;SDS011;10397;50.948;11.092;2022-12-07T13:31:36;3.33;;;0.90;;
20476;SDS011;10397;50.948;11.092;2022-12-07T13:37:12;3.07;;;0.73;;
20476;SDS011;10397;50.948;11.092;2022-12-07T13:39:59;3.10;;;0.50;;
20476;SDS011;10397;50.948;11.092;2022-12-07T13:42:30;2.70;;;0.70;;
20476;SDS011;10397;50.948;11.092;2022-12-07T13:45:01;3.27;;;0.90;;
20476;SDS011;10397;50.948;11.092;2022-12-07T13:47:40;3.02;;;0.90;;
20476;SDS011;10397;50.948;11.092;2022-12-07T13:50:29;4.37;;;0.90;;
20476;SDS011;10397;50.948;11.092;2022-12-07T13:52:59;2.43;;;0.97;;
20476;SDS011;10397;50.948;11.092;2022-12-07T13:55:30;1.35;;;0.62;;
20476;SDS011;10397;50.948;11.092;2022-12-07T13:58:00;3.13;;;0.60;;
20476;SDS011;10397;50.948;11.092;2022-12-07T14:00:31;8.95;;;0.98;;
20476;SDS011;10397;50.948;11.092;2022-12-07T14:03:03;2.73;;;0.70;;
20476;SDS011;10397;50.948;11.092;2022-12-07T14:05:42;0.93;;;0.60;;
20476;SDS011;10397;50.948;11.092;2022-12-07T14:11:04;2.27;;;0.70;;
20476;SDS011;10397;50.948;11.092;2022-12-07T14:13:32;1.40;;;0.53;;
20476;SDS011;10397;50.948;11.092;2022-12-07T14:16:04;1.80;;;0.63;;
20476;SDS011;10397;50.948;11.092;2022-12-07T14:18:40;1.32;;;0.60;;
20476;SDS011;10397;50.948;11.092;2022-12-07T14:21:15;3.47;;;0.93;;
20476;SDS011;10397;50.948;11.092;2022-12-07T14:24:02;4.10;;;0.90;;
20476;SDS011;10397;50.948;11.092;2022-12-07T14:26:19;2.08;;;1.15;;
20476;SDS011;10397;50.948;11.092;2022-12-07T14:28:49;2.07;;;0.93;;
20476;SDS011;10397;50.948;11.092;2022-12-07T14:31:21;1.57;;;0.80;;
20476;SDS011;10397;50.948;11.092;2022-12-07T14:33:50;1.27;;;0.63;;
20476;SDS011;10397;50.948;11.092;2022-12-07T14:36:21;1.10;;;0.60;;
20476;SDS011;10397;50.948;11.092;2022-12-07T14:38:52;2.10;;;0.63;;
20476;SDS011;10397;50.948;11.092;2022-12-07T14:41:22;3.83;;;0.70;;
20476;SDS011;10397;50.948;11.092;2022-12-07T14:44:11;3.17;;;0.90;;
20476;SDS011;10397;50.948;11.092;2022-12-07T14:46:42;1.50;;;0.60;;
20476;SDS011;10397;50.948;11.092;2022-12-07T14:49:13;2.10;;;0.80;;
20476;SDS011;10397;50.948;11.092;2022-12-07T14:51:44;1.37;;;0.60;;
20476;SDS011;10397;50.948;11.092;2022-12-07T14:54:17;2.08;;;0.68;;
20476;SDS011;10397;50.948;11.092;2022-12-07T14:56:47;0.93;;;0.50;;
20476;SDS011;10397;50.948;11.092;2022-12-07T14:59:18;1.35;;;0.50;;
20476;SDS011;10397;50.948;11.092;2022-12-07T15:01:49;1.40;;;1.00;;
20476;SDS011;10397;50.948;11.092;2022-12-07T15:04:19;3.03;;;0.60;;
20476;SDS011;10397;50.948;11.092;2022-12-07T15:06:55;4.10;;;1.20;;
20476;SDS011;10397;50.948;11.092;2022-12-07T15:09:27;3.20;;;1.43;;
20476;SDS011;10397;50.948;11.092;2022-12-07T15:11:58;3.30;;;1.10;;
20476;SDS011;10397;50.948;11.092;2022-12-07T15:14:29;4.10;;;0.80;;
20476;SDS011;10397;50.948;11.092;2022-12-07T15:17:00;2.52;;;1.05;;
20476;SDS011;10397;50.948;11.092;2022-12-07T15:19:31;2.90;;;1.13;;
20476;SDS011;10397;50.948;11.092;2022-12-07T15:22:02;2.52;;;1.10;;
20476;SDS011;10397;50.948;11.092;2022-12-07T15:24:33;4.77;;;0.93;;
20476;SDS011;10397;50.948;11.092;2022-12-07T15:27:03;3.00;;;1.00;;
20476;SDS011;10397;50.948;11.092;2022-12-07T15:29:34;3.27;;;0.70;;
20476;SDS011;10397;50.948;11.092;2022-12-07T15:32:05;4.47;;;1.30;;
20476;SDS011;10397;50.948;11.092;2022-12-07T15:34:36;1.13;;;0.90;;
20476;SDS011;10397;50.948;11.092;2022-12-07T15:37:06;3.60;;;0.90;;
20476;SDS011;10397;50.948;11.092;2022-12-07T15:39:37;5.53;;;1.13;;
20476;SDS011;10397;50.948;11.092;2022-12-07T15:42:08;3.65;;;1.25;;
20476;SDS011;10397;50.948;11.092;2022-12-07T15:44:38;2.67;;;1.00;;
20476;SDS011;10397;50.948;11.092;2022-12-07T15:47:27;2.77;;;0.70;;
20476;SDS011;10397;50.948;11.092;2022-12-07T15:49:58;2.23;;;0.70;;
20476;SDS011;10397;50.948;11.092;2022-12-07T15:52:27;2.60;;;0.80;;
20476;SDS011;10397;50.948;11.092;2022-12-07T15:54:58;3.37;;;0.80;;
20476;SDS011;10397;50.948;11.092;2022-12-07T15:57:29;3.30;;;0.60;;
20476;SDS011;10397;50.948;11.092;2022-12-07T16:00:00;1.32;;;0.70;;
20476;SDS011;10397;50.948;11.092;2022-12-07T16:02:30;3.50;;;2.50;;
20476;SDS011;10397;50.948;11.092;2022-12-07T16:05:02;1.37;;;0.70;;
20476;SDS011;10397;50.948;11.092;2022-12-07T16:07:33;2.47;;;1.02;;
20476;SDS011;10397;50.948;11.092;2022-12-07T16:10:04;5.20;;;0.85;;
20476;SDS011;10397;50.948;11.092;2022-12-07T16:12:34;4.63;;;0.97;;
20476;SDS011;10397;50.948;11.092;2022-12-07T16:15:05;2.67;;;1.20;;
20476;SDS011;10397;50.948;11.092;2022-12-07T16:17:37;4.55;;;0.90;;
20476;SDS011;10397;50.948;11.092;2022-12-07T16:20:08;2.83;;;1.15;;
20476;SDS011;10397;50.948;11.092;2022-12-07T16:22:39;3.95;;;1.52;;
20476;SDS011;10397;50.948;11.092;2022-12-07T16:25:11;5.42;;;1.27;;
20476;SDS011;10397;50.948;11.092;2022-12-07T16:27:42;4.20;;;1.30;;
20476;SDS011;10397;50.948;11.092;2022-12-07T16:30:14;2.77;;;0.93;;
20476;SDS011;10397;50.948;11.092;2022-12-07T16:32:44;3.90;;;1.20;;
20476;SDS011;10397;50.948;11.092;2022-12-07T16:35:15;5.50;;;1.10;;
20476;SDS011;10397;50.948;11.092;2022-12-07T16:37:46;3.15;;;0.93;;
20476;SDS011;10397;50.948;11.092;2022-12-07T16:40:17;6.35;;;1.30;;
20476;SDS011;10397;50.948;11.092;2022-12-07T16:42:48;2.40;;;0.50;;
20476;SDS011;10397;50.948;11.092;2022-12-07T16:45:19;1.30;;;0.62;;
20476;SDS011;10397;50.948;11.092;2022-12-07T16:47:49;5.03;;;0.90;;